Time;durP1;ratioP1;P1;durP2;ratioP2;P2;SDS_P1;SDS_P2;PMS_P1;PMS_P2;Temp;Humidity;BMP_temperature;BMP_pressure;BME280_temperature;BME280_humidity;BME280_pressure;Samples;Min_cycle;Max_cycle;Signal;HPM_P1;HPM_P2
2023/12/23 00:02:04;;;;;;;0.70;0.70;;;;;;;11.58;92.10;99875.03;4977833;28;20068;-91
2023/12/23 00:04:30;;;;;;;0.70;0.70;;;;;;;11.25;91.45;99807.09;4988268;28;20042;-91
2023/12/23 00:06:55;;;;;;;0.70;0.70;;;;;;;11.67;91.70;99863.19;4981369;28;20042;-89
2023/12/23 00:09:21;;;;;;;0.70;0.70;;;;;;;11.68;91.46;99844.50;4985741;28;20022;-90
2023/12/23 00:11:47;;;;;;;0.70;0.70;;;;;;;11.69;91.16;99864.03;4986786;28;20049;-91
2023/12/23 00:14:12;;;;;;;0.80;0.80;;;;;;;11.47;90.99;99823.13;4985274;28;20026;-90
2023/12/23 00:16:38;;;;;;;0.50;0.50;;;;;;;11.25;91.09;99806.25;4972046;28;20117;-89
2023/12/23 00:19:03;;;;;;;0.60;0.60;;;;;;;11.71;90.62;99870.16;4972598;28;20034;-90
2023/12/23 00:21:29;;;;;;;0.68;0.68;;;;;;;11.71;90.82;99876.34;4969673;28;20447;-92
2023/12/23 00:23:54;;;;;;;0.70;0.70;;;;;;;11.46;90.46;99832.94;4994906;28;20726;-90
2023/12/23 00:26:19;;;;;;;0.60;0.60;;;;;;;11.62;91.53;99859.81;4968909;28;20070;-91
2023/12/23 00:28:45;;;;;;;0.60;0.60;;;;;;;11.71;90.82;99879.00;4969451;28;20023;-89
2023/12/23 00:31:10;;;;;;;0.60;0.60;;;;;;;11.11;90.56;99798.81;5009859;28;20017;-91
2023/12/23 00:33:36;;;;;;;0.60;0.60;;;;;;;10.97;91.08;99768.31;5027413;28;20026;-91
2023/12/23 00:36:01;;;;;;;0.60;0.60;;;;;;;11.69;90.88;99903.97;5002574;28;20045;-90
2023/12/23 00:38:27;;;;;;;0.70;0.70;;;;;;;11.39;91.19;99854.50;4985785;28;20044;-91
2023/12/23 00:40:52;;;;;;;0.70;0.70;;;;;;;11.12;90.37;99820.97;4989066;28;20065;-90
2023/12/23 00:43:17;;;;;;;0.70;0.70;;;;;;;11.43;91.35;99883.63;4991088;28;20045;-91
2023/12/23 00:45:43;;;;;;;0.70;0.70;;;;;;;11.61;92.09;99916.69;4989568;28;20026;-91
2023/12/23 00:48:08;;;;;;;0.70;0.70;;;;;;;11.60;92.54;99920.28;4986802;28;20018;-89
2023/12/23 00:50:34;;;;;;;0.50;0.50;;;;;;;11.56;93.53;99916.00;5008117;28;20077;-91
2023/12/23 00:53:02;;;;;;;0.70;0.70;;;;;;;11.56;93.83;99918.66;4991018;28;20026;-89
2023/12/23 00:55:27;;;;;;;0.70;0.70;;;;;;;11.43;93.16;99912.06;4987730;28;20423;-91
2023/12/23 00:57:53;;;;;;;0.70;0.70;;;;;;;11.33;93.31;99897.38;4986539;28;20098;-91
2023/12/23 01:00:18;;;;;;;0.80;0.80;;;;;;;11.55;93.00;99939.09;4972242;28;20022;-88
2023/12/23 01:02:44;;;;;;;0.70;0.70;;;;;;;11.41;93.01;99930.78;4974018;28;20053;-89
2023/12/23 01:05:09;;;;;;;0.77;0.77;;;;;;;11.38;92.72;99924.69;4990506;28;20037;-92
2023/12/23 01:07:36;;;;;;;0.60;0.60;;;;;;;11.33;93.00;99916.88;4986045;28;20030;-92
2023/12/23 01:10:01;;;;;;;0.60;0.60;;;;;;;11.57;93.12;99977.22;4987025;28;20028;-90
2023/12/23 01:12:27;;;;;;;0.60;0.60;;;;;;;11.29;92.70;99922.34;4972000;28;20050;-92
2023/12/23 01:14:55;;;;;;;0.70;0.70;;;;;;;11.51;91.93;99979.25;4980513;28;20022;-91
2023/12/23 01:17:20;;;;;;;0.60;0.60;;;;;;;11.38;92.57;99946.00;4972504;28;20559;-90
2023/12/23 01:19:46;;;;;;;0.80;0.80;;;;;;;11.54;92.21;99958.69;4990815;28;20045;-91
2023/12/23 01:22:11;;;;;;;0.80;0.80;;;;;;;11.60;92.77;99973.56;4992231;28;20026;-92
2023/12/23 01:24:36;;;;;;;0.60;0.60;;;;;;;11.49;92.46;99965.97;4975252;28;20058;-91
2023/12/23 01:27:02;;;;;;;0.60;0.60;;;;;;;11.51;93.51;99968.59;4973491;28;20472;-90
2023/12/23 01:29:28;;;;;;;0.70;0.70;;;;;;;11.52;93.08;99970.31;4987627;28;20122;-89
2023/12/23 01:31:53;;;;;;;0.70;0.70;;;;;;;11.41;92.88;99967.19;4996550;28;20030;-89
2023/12/23 01:34:19;;;;;;;0.70;0.70;;;;;;;11.38;92.83;99953.97;4973840;28;20027;-91
2023/12/23 01:36:44;;;;;;;0.73;0.73;;;;;;;11.41;92.81;99960.06;4979180;28;20085;-93
2023/12/23 01:39:10;;;;;;;0.60;0.60;;;;;;;11.41;93.31;99972.50;4982026;28;20125;-91
2023/12/23 01:41:35;;;;;;;0.70;0.70;;;;;;;11.28;93.56;99952.59;5005952;28;20015;-92
2023/12/23 01:44:00;;;;;;;0.60;0.60;;;;;;;11.13;93.89;99945.13;4988588;28;20144;-89
2023/12/23 01:46:27;;;;;;;0.80;0.80;;;;;;;11.29;94.79;99980.94;4986723;28;20054;-91
2023/12/23 01:48:54;;;;;;;0.60;0.60;;;;;;;11.06;94.07;99927.66;5004456;28;20038;-90
2023/12/23 01:51:19;;;;;;;0.70;0.70;;;;;;;11.41;94.77;99988.50;4987802;28;20026;-89
2023/12/23 01:53:45;;;;;;;0.60;0.60;;;;;;;11.29;94.77;99991.59;4984083;28;20036;-89
2023/12/23 01:56:11;;;;;;;0.70;0.70;;;;;;;11.25;94.45;99976.66;4985583;28;20047;-90
2023/12/23 01:58:37;;;;;;;0.60;0.60;;;;;;;11.28;95.25;99987.19;4983557;28;20826;-89
2023/12/23 02:01:03;;;;;;;0.70;0.70;;;;;;;11.33;95.17;99985.22;4981613;28;20064;-92
2023/12/23 02:03:30;;;;;;;0.70;0.70;;;;;;;11.20;95.67;99989.25;4983170;28;20058;-90
2023/12/23 02:05:56;;;;;;;0.70;0.70;;;;;;;11.15;95.81;99973.44;5001149;28;20113;-89
2023/12/23 02:08:22;;;;;;;0.70;0.70;;;;;;;11.35;95.42;99992.22;4983136;28;20114;-91
2023/12/23 02:10:53;;;;;;;0.70;0.70;;;;;;;11.36;96.03;100017.06;4979119;28;20173;-90
2023/12/23 02:13:27;;;;;;;0.70;0.70;;;;;;;11.18;96.05;99985.78;4977386;28;20025;-93
2023/12/23 02:15:53;;;;;;;0.75;0.75;;;;;;;11.23;96.02;99984.69;4982421;28;20507;-91
2023/12/23 02:18:19;;;;;;;0.70;0.70;;;;;;;11.20;96.55;99983.94;4967540;28;20027;-90
2023/12/23 02:20:51;;;;;;;0.70;0.70;;;;;;;11.14;97.33;99989.47;4974985;28;20026;-91
2023/12/23 02:23:20;;;;;;;0.70;0.70;;;;;;;11.08;98.19;99968.38;4982738;28;20549;-90
2023/12/23 02:25:51;;;;;;;0.70;0.70;;;;;;;11.28;98.70;100005.84;4981836;28;20026;-91
2023/12/23 02:28:20;;;;;;;0.70;0.70;;;;;;;11.21;98.32;99996.31;4983259;28;20046;-92
2023/12/23 02:30:47;;;;;;;0.80;0.80;;;;;;;10.91;98.96;99949.47;4992173;28;20057;-91
2023/12/23 02:33:13;;;;;;;0.70;0.70;;;;;;;11.21;99.27;100002.53;5000591;28;20030;-91
2023/12/23 02:35:38;;;;;;;0.70;0.70;;;;;;;10.98;98.27;99981.16;5001638;28;20051;-91
2023/12/23 02:38:04;;;;;;;0.60;0.60;;;;;;;10.95;98.33;99996.34;4968680;28;20068;-91
2023/12/23 02:40:29;;;;;;;0.70;0.70;;;;;;;11.03;97.88;99991.63;4981209;28;20112;-91
2023/12/23 02:42:55;;;;;;;0.60;0.60;;;;;;;10.80;97.07;99951.66;4984840;28;20854;-91
2023/12/23 02:45:20;;;;;;;0.70;0.70;;;;;;;10.79;97.12;99960.56;4982436;28;20032;-90
2023/12/23 02:47:46;;;;;;;0.60;0.60;;;;;;;11.02;96.77;100001.41;4985212;28;20027;-90
2023/12/23 02:50:11;;;;;;;0.73;0.73;;;;;;;11.14;96.51;100000.09;4977981;28;20118;-89
2023/12/23 02:52:36;;;;;;;0.70;0.70;;;;;;;11.07;96.13;99982.63;4962818;28;20034;-91
2023/12/23 02:55:03;;;;;;;0.70;0.70;;;;;;;11.16;96.06;99998.28;4964810;28;20033;-89
2023/12/23 02:57:28;;;;;;;0.70;0.70;;;;;;;10.80;95.34;99960.50;4982906;28;20105;-91
2023/12/23 02:59:54;;;;;;;0.70;0.70;;;;;;;10.96;95.82;99966.16;4983803;28;20046;-90
2023/12/23 03:02:19;;;;;;;0.80;0.80;;;;;;;11.17;95.74;100011.53;4974713;28;20125;-90
2023/12/23 03:04:45;;;;;;;0.50;0.50;;;;;;;11.12;95.90;99992.19;4978239;28;20053;-91
2023/12/23 03:07:10;;;;;;;0.70;0.70;;;;;;;11.23;94.87;100008.66;4982936;28;20078;-92
2023/12/23 03:09:35;;;;;;;0.80;0.80;;;;;;;11.15;94.95;100001.88;4967302;28;20061;-90
2023/12/23 03:12:01;;;;;;;0.70;0.70;;;;;;;11.23;95.73;100006.00;4971497;28;20543;-91
2023/12/23 03:14:26;;;;;;;0.70;0.70;;;;;;;10.81;95.55;99959.56;4989666;28;20120;-91
2023/12/23 03:16:52;;;;;;;0.70;0.70;;;;;;;10.95;95.68;99962.66;4994492;28;20037;-89
2023/12/23 03:19:17;;;;;;;0.70;0.70;;;;;;;11.15;94.96;100007.19;4966219;28;20027;-90
2023/12/23 03:21:44;;;;;;;0.70;0.70;;;;;;;11.20;95.76;100005.25;4966435;28;20030;-89
2023/12/23 03:24:10;;;;;;;0.70;0.70;;;;;;;11.05;95.57;99995.13;4968756;28;20049;-90
2023/12/23 03:26:35;;;;;;;0.60;0.60;;;;;;;11.08;95.72;99989.69;4980298;28;20026;-90
2023/12/23 03:29:01;;;;;;;0.75;0.75;;;;;;;11.09;95.46;100004.72;4982076;28;20022;-88
2023/12/23 03:31:26;;;;;;;0.70;0.70;;;;;;;11.07;95.24;100003.94;4990611;28;20028;-92
2023/12/23 03:33:52;;;;;;;0.60;0.60;;;;;;;11.07;94.93;99978.16;4983774;28;20026;-90
2023/12/23 03:36:20;;;;;;;0.65;0.65;;;;;;;11.13;94.96;99996.59;4974561;28;20611;-90
2023/12/23 03:38:45;;;;;;;0.60;0.60;;;;;;;11.17;94.83;100016.84;4964601;28;20050;-89
2023/12/23 03:41:11;;;;;;;0.80;0.80;;;;;;;11.10;94.92;100003.81;4966733;28;20121;-91
2023/12/23 03:43:36;;;;;;;0.70;0.70;;;;;;;11.15;95.42;100013.34;4964657;28;20198;-89
2023/12/23 03:46:02;;;;;;;0.70;0.70;;;;;;;11.06;94.51;99987.09;4998779;28;20074;-91
2023/12/23 03:48:27;;;;;;;0.70;0.70;;;;;;;10.95;95.07;99954.66;4985249;28;20022;-91
2023/12/23 03:50:53;;;;;;;0.63;0.63;;;;;;;11.07;95.19;99977.31;4985673;28;20524;-90
2023/12/23 03:53:18;;;;;;;0.70;0.70;;;;;;;11.05;94.85;99974.72;4983711;28;20023;-92
2023/12/23 03:55:44;;;;;;;0.77;0.77;;;;;;;11.07;94.99;99983.47;4975232;28;20026;-90
2023/12/23 03:58:09;;;;;;;0.70;0.70;;;;;;;11.03;95.13;99975.66;4986725;28;20026;-90
2023/12/23 04:00:35;;;;;;;0.65;0.65;;;;;;;10.93;94.47;99956.50;4981564;28;20097;-91
2023/12/23 04:03:01;;;;;;;0.70;0.70;;;;;;;10.69;94.77;99905.94;4994300;28;20521;-90
2023/12/23 04:05:26;;;;;;;0.70;0.70;;;;;;;10.99;94.63;99936.78;4983891;28;20054;-91
2023/12/23 04:07:51;;;;;;;0.70;0.70;;;;;;;11.08;94.59;99947.97;4984636;28;20034;-91
2023/12/23 04:10:17;;;;;;;0.57;0.57;;;;;;;10.90;94.66;99939.75;5000686;28;20468;-89
2023/12/23 04:12:43;;;;;;;0.70;0.70;;;;;;;10.87;94.35;99921.25;4986813;28;20046;-92
2023/12/23 04:15:09;;;;;;;0.70;0.70;;;;;;;11.04;94.11;99950.78;4988313;28;20559;-91
2023/12/23 04:17:35;;;;;;;0.70;0.70;;;;;;;11.16;93.88;99958.34;4985889;28;20045;-91
2023/12/23 04:20:01;;;;;;;0.70;0.70;;;;;;;10.63;94.42;99883.94;4984490;28;20476;-91
2023/12/23 04:22:26;;;;;;;0.60;0.60;;;;;;;11.12;94.87;99949.59;5002185;28;20161;-91
2023/12/23 04:24:52;;;;;;;0.80;0.80;;;;;;;11.02;94.80;99934.03;4984950;28;20403;-91
2023/12/23 04:27:17;;;;;;;0.70;0.70;;;;;;;11.17;94.61;99946.78;4988351;28;20113;-91
2023/12/23 04:29:43;;;;;;;0.65;0.65;;;;;;;11.03;95.76;99918.00;5001116;28;20038;-90
2023/12/23 04:32:09;;;;;;;0.70;0.70;;;;;;;10.88;97.67;99928.28;5004785;28;20006;-90
2023/12/23 04:34:36;;;;;;;0.70;0.70;;;;;;;10.90;99.57;99939.75;4984915;28;20018;-89
2023/12/23 04:37:01;;;;;;;0.70;0.70;;;;;;;10.84;100.00;99932.00;4972836;28;20206;-90
2023/12/23 04:39:27;;;;;;;0.80;0.80;;;;;;;10.86;100.00;99946.97;4975020;28;20050;-91
2023/12/23 04:41:53;;;;;;;0.70;0.70;;;;;;;10.78;100.00;99932.19;4984213;28;20027;-89
2023/12/23 04:44:19;;;;;;;0.70;0.70;;;;;;;10.82;100.00;99944.50;5002330;28;20494;-91
2023/12/23 04:46:47;;;;;;;0.73;0.73;;;;;;;10.83;100.00;99951.53;4997738;28;20025;-91
2023/12/23 04:49:13;;;;;;;0.80;0.80;;;;;;;10.53;100.00;99908.25;5005266;28;20033;-91
2023/12/23 04:51:38;;;;;;;0.70;0.70;;;;;;;10.61;100.00;99920.34;4990200;28;20480;-91
2023/12/23 04:54:04;;;;;;;0.75;0.75;;;;;;;10.57;100.00;99923.19;4986704;28;20026;-90
2023/12/23 04:56:29;;;;;;;0.70;0.70;;;;;;;10.49;100.00;99915.44;4981201;28;20061;-92
2023/12/23 04:58:56;;;;;;;0.63;0.63;;;;;;;10.44;100.00;99897.94;4965949;28;20046;-90
2023/12/23 05:01:22;;;;;;;0.70;0.70;;;;;;;10.65;100.00;99934.44;4965382;28;20031;-90
2023/12/23 05:03:48;;;;;;;0.70;0.70;;;;;;;10.55;100.00;99909.94;4965518;28;20154;-90
2023/12/23 05:06:13;;;;;;;0.60;0.60;;;;;;;10.59;100.00;99914.22;4962420;28;20058;-89
2023/12/23 05:08:39;;;;;;;0.70;0.70;;;;;;;10.46;100.00;99883.66;4961796;28;20027;-91
2023/12/23 05:11:04;;;;;;;0.70;0.70;;;;;;;10.51;100.00;99905.63;4975264;28;20034;-91
2023/12/23 05:13:30;;;;;;;0.70;0.70;;;;;;;10.51;100.00;99907.41;4978634;28;20026;-90
2023/12/23 05:15:55;;;;;;;0.70;0.70;;;;;;;10.48;100.00;99911.06;4985012;28;20026;-90
2023/12/23 05:18:21;;;;;;;0.80;0.80;;;;;;;10.27;100.00;99881.66;4978219;28;20090;-93
2023/12/23 05:20:46;;;;;;;0.65;0.65;;;;;;;10.64;100.00;99938.03;4965082;28;20392;-91
2023/12/23 05:23:12;;;;;;;0.70;0.70;;;;;;;10.50;100.00;99925.19;4965840;28;20061;-89
2023/12/23 05:25:37;;;;;;;0.68;0.68;;;;;;;10.50;100.00;99929.63;4973589;28;20030;-91
2023/12/23 05:28:03;;;;;;;0.70;0.70;;;;;;;10.47;100.00;99921.75;4972204;28;20105;-90
2023/12/23 05:30:29;;;;;;;0.70;0.70;;;;;;;10.60;100.00;99949.66;4970671;28;20007;-92
2023/12/23 05:32:54;;;;;;;0.70;0.70;;;;;;;10.50;100.00;99932.28;4979778;28;20031;-91
2023/12/23 05:35:20;;;;;;;0.73;0.73;;;;;;;10.52;100.00;99922.47;4964384;28;20130;-90
2023/12/23 05:37:45;;;;;;;0.70;0.70;;;;;;;10.57;100.00;99947.13;4976171;28;20026;-91
2023/12/23 05:40:11;;;;;;;0.80;0.80;;;;;;;10.50;100.00;99932.28;4978740;28;20050;-92
2023/12/23 05:42:36;;;;;;;0.70;0.70;;;;;;;10.50;100.00;99927.84;4983890;28;20056;-90
2023/12/23 05:45:02;;;;;;;0.60;0.60;;;;;;;10.39;100.00;99914.00;4985364;28;20113;-90
2023/12/23 05:47:29;;;;;;;0.77;0.77;;;;;;;10.52;100.00;99925.13;4986599;28;20185;-91
2023/12/23 05:49:55;;;;;;;0.80;0.80;;;;;;;10.49;100.00;99926.09;4968144;28;20070;-90
2023/12/23 05:52:20;;;;;;;0.60;0.60;;;;;;;10.59;100.00;99938.16;4985174;28;20018;-92
2023/12/23 05:54:45;;;;;;;0.70;0.70;;;;;;;10.55;100.00;99952.50;4973186;28;20038;-91
2023/12/23 05:57:11;;;;;;;0.80;0.80;;;;;;;10.55;100.00;99933.88;4968164;28;20031;-91
2023/12/23 05:59:36;;;;;;;0.70;0.70;;;;;;;10.59;100.00;99927.50;4964234;28;20476;-91
2023/12/23 06:02:02;;;;;;;0.70;0.70;;;;;;;10.29;100.00;99872.75;4977640;28;20381;-91
2023/12/23 06:04:28;;;;;;;0.70;0.70;;;;;;;10.45;100.00;99908.50;4981978;28;20385;-90
2023/12/23 06:06:53;;;;;;;0.70;0.70;;;;;;;10.66;100.00;99927.31;4980702;28;20026;-90
2023/12/23 06:09:19;;;;;;;0.77;0.77;;;;;;;10.32;100.00;99864.66;4984506;28;20026;-90
2023/12/23 06:11:44;;;;;;;0.60;0.60;;;;;;;10.64;100.00;99920.25;4983813;28;20057;-92
2023/12/23 06:14:10;;;;;;;0.60;0.60;;;;;;;10.49;100.00;99894.16;4993422;28;20045;-92
2023/12/23 06:16:42;;;;;;;0.68;0.68;;;;;;;10.18;100.00;99872.19;4989315;28;20353;-91
2023/12/23 06:19:08;;;;;;;0.70;0.70;;;;;;;10.54;100.00;99939.25;4996014;28;20083;-90
2023/12/23 06:21:34;;;;;;;0.70;0.70;;;;;;;10.72;100.00;99948.38;5002794;28;20109;-91
2023/12/23 06:23:59;;;;;;;0.80;0.80;;;;;;;10.59;100.00;99926.66;4980746;28;20073;-91
2023/12/23 06:26:25;;;;;;;0.70;0.70;;;;;;;10.78;100.00;99943.72;4977350;28;20109;-90
2023/12/23 06:28:51;;;;;;;0.80;0.80;;;;;;;10.74;100.00;99938.56;5003864;28;20057;-91
2023/12/23 06:31:16;;;;;;;0.70;0.70;;;;;;;10.69;100.00;99940.50;4984733;28;20457;-91
2023/12/23 06:33:42;;;;;;;0.70;0.70;;;;;;;10.76;100.00;99955.34;4992679;28;20029;-91
2023/12/23 06:36:08;;;;;;;0.70;0.70;;;;;;;10.77;100.00;99973.03;4984919;28;20026;-93
2023/12/23 06:38:37;;;;;;;0.75;0.75;;;;;;;10.56;100.00;99940.91;4982818;28;20251;-91
2023/12/23 06:41:03;;;;;;;0.70;0.70;;;;;;;10.64;100.00;99946.00;4984716;28;20094;-91
2023/12/23 06:43:29;;;;;;;0.65;0.65;;;;;;;10.55;100.00;99951.63;4982673;28;20022;-91
2023/12/23 06:45:56;;;;;;;0.80;0.80;;;;;;;10.61;100.00;99978.88;4992243;28;20790;-90
2023/12/23 06:48:21;;;;;;;0.70;0.70;;;;;;;10.18;100.00;99893.47;4964159;28;20026;-91
2023/12/23 06:50:47;;;;;;;0.70;0.70;;;;;;;10.48;100.00;99948.28;4963635;28;20126;-91
2023/12/23 06:53:12;;;;;;;0.70;0.70;;;;;;;10.21;100.00;99898.69;4997462;28;20028;-90
2023/12/23 06:55:38;;;;;;;0.70;0.70;;;;;;;10.53;100.00;99942.81;4985034;28;20080;-92
2023/12/23 06:58:03;;;;;;;0.60;0.60;;;;;;;10.60;100.00;99949.66;4985320;28;20049;-91
2023/12/23 07:00:29;;;;;;;0.70;0.70;;;;;;;10.50;100.00;99938.47;4998897;28;20388;-90
2023/12/23 07:02:54;;;;;;;0.70;0.70;;;;;;;10.43;100.00;99923.63;4983304;28;20086;-91
2023/12/23 07:05:20;;;;;;;0.80;0.80;;;;;;;10.58;100.00;99941.75;5000674;28;20052;-91
2023/12/23 07:07:45;;;;;;;0.70;0.70;;;;;;;10.70;100.00;99955.53;4977370;28;20030;-92
2023/12/23 07:10:13;;;;;;;0.70;0.70;;;;;;;10.64;99.35;99935.38;4981729;28;20018;-91
2023/12/23 07:12:38;;;;;;;0.60;0.60;;;;;;;10.72;99.00;99954.59;4976907;28;20022;-92
2023/12/23 07:15:06;;;;;;;0.60;0.60;;;;;;;10.74;99.08;99954.53;4974160;28;20399;-91
2023/12/23 07:17:32;;;;;;;0.70;0.70;;;;;;;10.61;100.00;99944.28;4981034;28;20041;-91
2023/12/23 07:19:57;;;;;;;0.80;0.80;;;;;;;10.66;100.00;99951.25;4981943;28;20030;-91
2023/12/23 07:22:23;;;;;;;0.70;0.70;;;;;;;10.58;100.00;99941.75;4980224;28;20450;-92
2023/12/23 07:24:48;;;;;;;0.80;0.80;;;;;;;10.49;100.00;99942.03;5001762;28;20022;-92
2023/12/23 07:27:14;;;;;;;0.80;0.80;;;;;;;10.49;100.00;99946.50;4979292;28;20061;-91
2023/12/23 07:29:39;;;;;;;0.70;0.70;;;;;;;10.50;100.00;99950.91;4984095;28;20117;-91
2023/12/23 07:32:06;;;;;;;0.70;0.70;;;;;;;10.55;100.00;99970.22;4984044;28;20113;-93
2023/12/23 07:34:31;;;;;;;0.70;0.70;;;;;;;10.41;100.00;99944.09;4985328;28;20142;-91
2023/12/23 07:36:56;;;;;;;0.70;0.70;;;;;;;10.49;100.00;99958.00;4983584;28;20074;-92
2023/12/23 07:39:22;;;;;;;0.70;0.70;;;;;;;10.49;100.00;99967.78;4985462;28;20120;-91
2023/12/23 07:41:47;;;;;;;0.70;0.70;;;;;;;10.51;100.00;99966.81;4972562;28;20026;-91
2023/12/23 07:44:13;;;;;;;0.65;0.65;;;;;;;10.65;99.99;99979.66;4966894;28;20019;-92
2023/12/23 07:46:38;;;;;;;0.80;0.80;;;;;;;10.41;99.74;99936.13;4986361;28;20049;-91
2023/12/23 07:49:04;;;;;;;0.70;0.70;;;;;;;10.61;98.39;99972.66;4968647;28;20035;-92
2023/12/23 07:51:29;;;;;;;0.70;0.70;;;;;;;10.73;96.43;99968.72;4981128;28;20026;-92
2023/12/23 07:53:55;;;;;;;0.70;0.70;;;;;;;10.87;95.96;99987.78;4995083;28;20066;-92
2023/12/23 07:56:20;;;;;;;0.70;0.70;;;;;;;10.52;95.16;99925.13;4984051;28;20080;-91
2023/12/23 07:58:46;;;;;;;0.70;0.70;;;;;;;10.63;95.48;99939.81;4983637;28;20153;-91
2023/12/23 08:01:11;;;;;;;0.70;0.70;;;;;;;10.82;95.59;99964.00;4982357;28;20580;-92
2023/12/23 08:03:36;;;;;;;0.68;0.68;;;;;;;10.85;96.09;99960.34;4976014;28;20619;-91
2023/12/23 08:06:02;;;;;;;0.70;0.70;;;;;;;10.87;96.08;99969.16;4979295;28;20089;-93
2023/12/23 08:08:27;;;;;;;0.70;0.70;;;;;;;10.70;97.00;99956.41;4979859;28;20524;-91
2023/12/23 08:10:54;;;;;;;0.70;0.70;;;;;;;10.78;97.41;99972.09;4980757;28;20090;-91
2023/12/23 08:13:20;;;;;;;0.70;0.70;;;;;;;10.72;97.25;99961.69;4976083;28;20086;-91
2023/12/23 08:15:46;;;;;;;0.60;0.60;;;;;;;10.71;97.58;99975.91;4974138;28;20057;-91
2023/12/23 08:18:12;;;;;;;0.75;0.75;;;;;;;10.67;97.06;99976.94;4983058;28;20030;-90
2023/12/23 08:20:37;;;;;;;0.70;0.70;;;;;;;10.70;97.06;99972.38;4981735;28;20026;-91
2023/12/23 08:23:03;;;;;;;0.70;0.70;;;;;;;10.72;96.19;99986.50;4962059;28;20031;-89
2023/12/23 08:25:29;;;;;;;0.63;0.63;;;;;;;10.84;95.98;99995.88;4980584;28;20030;-89
2023/12/23 08:27:54;;;;;;;0.75;0.75;;;;;;;10.79;95.93;99979.19;4979648;28;20050;-90
2023/12/23 08:30:20;;;;;;;0.80;0.80;;;;;;;10.47;95.00;99932.38;4995477;28;20026;-91
2023/12/23 08:32:45;;;;;;;0.70;0.70;;;;;;;10.90;95.80;99995.66;4977469;28;20018;-91
2023/12/23 08:35:11;;;;;;;0.73;0.73;;;;;;;10.76;94.42;99966.84;5000740;28;20061;-90
2023/12/23 08:37:37;;;;;;;0.60;0.60;;;;;;;10.71;94.35;99963.47;4962853;28;20102;-91
2023/12/23 08:40:03;;;;;;;0.70;0.70;;;;;;;10.75;92.90;99974.88;4980186;28;20095;-92
2023/12/23 08:42:28;;;;;;;0.70;0.70;;;;;;;10.91;92.34;99986.72;4954644;28;20026;-91
2023/12/23 08:44:54;;;;;;;0.70;0.70;;;;;;;11.08;92.04;99995.00;4983315;28;20449;-92
2023/12/23 08:47:19;;;;;;;0.70;0.70;;;;;;;10.87;91.59;99953.19;4980726;28;20027;-90
2023/12/23 08:49:45;;;;;;;0.60;0.60;;;;;;;11.04;91.76;99993.38;4945103;29;20085;-91
2023/12/23 08:52:10;;;;;;;0.70;0.70;;;;;;;11.03;91.28;99981.00;4961643;29;20499;-90
2023/12/23 08:54:36;;;;;;;0.70;0.70;;;;;;;11.04;90.91;99983.59;4962234;28;20168;-92
2023/12/23 08:57:02;;;;;;;0.70;0.70;;;;;;;11.00;90.32;99965.13;4963730;29;20034;-89
2023/12/23 08:59:27;;;;;;;0.60;0.60;;;;;;;11.09;90.77;99992.28;4980439;28;20039;-92
2023/12/23 09:01:52;;;;;;;0.70;0.70;;;;;;;11.01;91.03;99957.09;4981890;28;20110;-92
2023/12/23 09:04:18;;;;;;;0.70;0.70;;;;;;;11.02;90.43;100000.56;4966663;28;20030;-91
2023/12/23 09:06:44;;;;;;;0.50;0.50;;;;;;;11.17;90.88;100018.66;4981525;28;20038;-90
2023/12/23 09:09:09;;;;;;;0.70;0.70;;;;;;;11.08;90.46;100000.34;4981743;28;20026;-91
2023/12/23 09:11:41;;;;;;;0.60;0.60;;;;;;;11.03;90.19;100002.28;4983309;28;20187;-91
2023/12/23 09:14:07;;;;;;;0.70;0.70;;;;;;;11.07;89.67;100012.75;4976958;28;20011;-91
2023/12/23 09:16:32;;;;;;;0.70;0.70;;;;;;;11.19;90.46;100043.41;4963511;28;20829;-90
2023/12/23 09:18:58;;;;;;;0.80;0.80;;;;;;;11.05;89.50;100009.31;4966450;28;20027;-91
2023/12/23 09:21:23;;;;;;;0.70;0.70;;;;;;;11.19;89.52;100030.09;4983881;28;20118;-93
2023/12/23 09:23:50;;;;;;;0.70;0.70;;;;;;;11.08;87.71;100003.00;4986443;28;20042;-90
2023/12/23 09:26:15;;;;;;;0.50;0.50;;;;;;;11.23;88.61;100015.78;4982489;28;20026;-91
2023/12/23 09:28:41;;;;;;;0.70;0.70;;;;;;;11.12;88.77;100018.78;4987717;28;20019;-92
2023/12/23 09:31:06;;;;;;;0.70;0.70;;;;;;;11.17;88.97;100053.28;5008553;28;20039;-91
2023/12/23 09:33:32;;;;;;;0.60;0.60;;;;;;;11.16;89.86;100046.19;4992330;28;20066;-91
2023/12/23 09:35:57;;;;;;;0.70;0.70;;;;;;;11.17;90.75;100050.59;4990264;28;20087;-89
2023/12/23 09:38:23;;;;;;;0.80;0.80;;;;;;;11.09;89.72;100050.84;4965995;28;20089;-90
2023/12/23 09:40:49;;;;;;;0.70;0.70;;;;;;;11.11;89.74;100054.34;4999038;28;20480;-90
2023/12/23 09:43:15;;;;;;;0.65;0.65;;;;;;;11.26;89.60;100063.59;5001365;28;20034;-91
2023/12/23 09:45:42;;;;;;;0.70;0.70;;;;;;;11.31;90.45;100064.28;4976756;28;20034;-88
2023/12/23 09:48:09;;;;;;;0.70;0.70;;;;;;;11.03;89.22;100031.56;4969973;28;20019;-90
2023/12/23 09:50:34;;;;;;;0.80;0.80;;;;;;;11.19;89.51;100056.72;4972421;28;20098;-88
2023/12/23 09:53:00;;;;;;;0.60;0.60;;;;;;;11.25;89.61;100053.88;5001589;28;20385;-90
2023/12/23 09:55:27;;;;;;;0.60;0.60;;;;;;;11.18;89.56;100057.66;4968114;28;20035;-90
2023/12/23 09:57:52;;;;;;;0.60;0.60;;;;;;;11.07;89.16;100041.19;4965876;29;20027;-90
2023/12/23 10:00:18;;;;;;;0.70;0.70;;;;;;;10.85;89.47;99989.59;4962505;29;20412;-90
2023/12/23 10:02:43;;;;;;;0.77;0.77;;;;;;;11.08;88.07;100037.59;4964845;28;20051;-89
2023/12/23 10:05:09;;;;;;;0.70;0.70;;;;;;;11.16;88.19;100040.88;4965656;28;20023;-90
2023/12/23 10:07:34;;;;;;;0.70;0.70;;;;;;;10.86;87.61;99984.22;4981883;28;20072;-89
2023/12/23 10:10:00;;;;;;;0.70;0.70;;;;;;;11.14;86.63;100053.34;4986191;28;20018;-91
2023/12/23 10:12:26;;;;;;;0.70;0.70;;;;;;;11.15;86.19;100041.78;4974881;28;20034;-93
2023/12/23 10:14:52;;;;;;;0.70;0.70;;;;;;;11.21;85.72;100047.78;4996905;28;20061;-91
2023/12/23 10:17:17;;;;;;;0.70;0.70;;;;;;;11.36;86.23;100049.03;4980940;28;20035;-89
2023/12/23 10:19:43;;;;;;;0.70;0.70;;;;;;;11.24;85.32;100021.03;4983134;28;20053;-90
2023/12/23 10:22:08;;;;;;;0.80;0.80;;;;;;;11.36;84.77;100049.91;4997106;28;20503;-91
2023/12/23 10:24:37;;;;;;;0.70;0.70;;;;;;;11.31;85.05;100024.34;4965271;28;20125;-90
2023/12/23 10:27:03;;;;;;;0.70;0.70;;;;;;;11.26;84.62;100020.97;4987225;28;20038;-91
2023/12/23 10:29:32;;;;;;;0.70;0.70;;;;;;;11.15;85.28;100002.72;4985151;28;20030;-90
2023/12/23 10:32:02;;;;;;;0.70;0.70;;;;;;;11.33;85.64;100023.41;4978782;28;20031;-91
2023/12/23 10:34:42;;;;;;;0.75;0.75;;;;;;;11.36;86.68;100030.38;4966294;28;20031;-91
2023/12/23 10:37:11;;;;;;;0.70;0.70;;;;;;;11.25;87.32;99992.63;4980041;28;20030;-90
2023/12/23 10:39:45;;;;;;;0.70;0.70;;;;;;;11.10;85.96;99987.84;4964823;29;20039;-87
2023/12/23 10:42:19;;;;;;;0.70;0.70;;;;;;;11.12;86.40;99983.34;4964150;29;20493;-90
2023/12/23 10:44:46;;;;;;;0.70;0.70;;;;;;;11.38;85.67;100004.59;4987456;28;20015;-90
2023/12/23 10:47:14;;;;;;;0.60;0.60;;;;;;;11.49;84.89;100021.03;5002455;28;20665;-91
2023/12/23 10:49:43;;;;;;;0.60;0.60;;;;;;;11.38;84.84;99997.44;5002677;28;20026;-90
2023/12/23 10:52:11;;;;;;;0.60;0.60;;;;;;;11.40;84.28;100003.59;5007318;28;20021;-91
2023/12/23 10:54:37;;;;;;;0.70;0.70;;;;;;;11.40;84.22;100002.75;4979543;28;20034;-90
2023/12/23 10:57:07;;;;;;;0.60;0.60;;;;;;;11.47;84.38;99986.47;4997560;28;20026;-92
2023/12/23 10:59:33;;;;;;;0.70;0.70;;;;;;;11.48;84.46;99974.88;4979949;28;20567;-89
2023/12/23 11:02:13;;;;;;;0.60;0.60;;;;;;;11.59;84.50;99982.47;4981409;28;20074;-91
2023/12/23 11:04:42;;;;;;;0.70;0.70;;;;;;;11.61;83.81;99991.28;4996550;28;20049;-90
2023/12/23 11:07:11;;;;;;;0.73;0.73;;;;;;;11.63;83.55;99992.13;4992017;28;20050;-90
2023/12/23 11:09:40;;;;;;;0.60;0.60;;;;;;;11.66;82.98;99978.72;4975243;28;20725;-90
2023/12/23 11:12:06;;;;;;;0.70;0.70;;;;;;;11.68;83.71;99972.38;4965892;28;20556;-89
2023/12/23 11:14:31;;;;;;;0.70;0.70;;;;;;;11.79;83.31;99986.16;4981911;28;20113;-89
2023/12/23 11:16:58;;;;;;;0.70;0.70;;;;;;;11.75;83.18;99994.34;4998084;28;20031;-89
2023/12/23 11:19:25;;;;;;;0.70;0.70;;;;;;;11.72;84.19;99950.03;4982758;28;20073;-90
2023/12/23 11:22:29;;;;;;;0.70;0.70;;;;;;;11.78;84.38;99989.75;4987782;28;20027;-90
2023/12/23 11:24:55;;;;;;;0.60;0.60;;;;;;;11.80;84.59;100013.69;4921934;29;20043;-88